OH54 weather

Medical Center Heliport
Columbus, Ohio, United States

Public forecast

Using degrees Fahrenheit for public forecast. Weather courtesy of forecast.io.

METAR (pilot weather report)

Closest report is The Ohio State University Airport - Don Scott Field, 5.6 nm (10.4 km) NNW. Retrieved 2019/05/25 22:53 UTC (23 minutes ago):

KOSU 252253Z 29010KT 10SM FEW041 BKN075 OVC110 22/19 A3003 RMK AO2 RAB08E48 SLP164 P0001 T02220189

TAF (pilot weather forecast)

Closest forecast is John Glenn Columbus International Airport, 5.9 nm (11.0 km) E. Retrieved 2019/05/25 18:30 UTC (5 hours ago):

TAF KCMH 251727Z 2518/2618 20013G21KT P6SM BKN040 FM252100 24012G23KT P6SM VCTS BKN040CB FM260100 23006KT P6SM BKN120 FM260900 23006KT P6SM BKN060 FM261100 23007KT P6SM VCSH BKN050 FM261500 25009KT P6SM -SHRA VCTS BKN050CB